Time;durP1;ratioP1;P1;durP2;ratioP2;P2;SDS_P1;SDS_P2;PMS_P1;PMS_P2;Temp;Humidity;BMP_temperature;BMP_pressure;BME280_temperature;BME280_humidity;BME280_pressure;Samples;Min_cycle;Max_cycle;Signal;HPM_P1;HPM_P2
2023/03/16 00:02:14;;;;;;;10.40;3.30;;;3.60;99.90;;;;;;4972112;28;20050;-58
2023/03/16 00:04:39;;;;;;;6.78;3.05;;;3.70;99.90;;;;;;4967458;28;20053;-59
2023/03/16 00:07:10;;;;;;;7.93;3.10;;;3.60;99.90;;;;;;4971279;28;20521;-57
2023/03/16 00:09:39;;;;;;;7.32;3.10;;;3.70;99.90;;;;;;4967875;28;20093;-57
2023/03/16 00:12:14;;;;;;;12.52;2.80;;;3.60;99.90;;;;;;4972767;28;20058;-58
2023/03/16 00:14:44;;;;;;;5.47;2.70;;;3.70;99.90;;;;;;4971893;28;20481;-56
2023/03/16 00:17:17;;;;;;;8.35;3.10;;;3.70;99.90;;;;;;4975400;28;20125;-58
2023/03/16 00:19:54;;;;;;;7.32;3.05;;;3.70;99.90;;;;;;4964203;28;20065;-57
2023/03/16 00:22:26;;;;;;;7.80;3.00;;;3.60;99.90;;;;;;4957486;28;20120;-58
2023/03/16 00:24:52;;;;;;;5.72;2.67;;;3.60;99.90;;;;;;4958799;28;20512;-58
2023/03/16 00:27:21;;;;;;;7.88;3.00;;;3.70;99.90;;;;;;4938687;28;20063;-58
2023/03/16 00:29:49;;;;;;;9.43;2.90;;;3.70;99.90;;;;;;4945360;28;20071;-57
2023/03/16 00:32:19;;;;;;;8.48;2.90;;;3.70;99.90;;;;;;4957562;28;20046;-59
2023/03/16 00:34:45;;;;;;;5.50;2.85;;;3.70;99.90;;;;;;4956367;28;20049;-58
2023/03/16 00:37:14;;;;;;;6.03;2.65;;;3.70;99.90;;;;;;4951576;28;20042;-58
2023/03/16 00:39:44;;;;;;;7.80;2.67;;;3.70;99.90;;;;;;4929556;28;23725;-58
2023/03/16 00:42:13;;;;;;;9.50;3.03;;;3.70;99.90;;;;;;4952394;28;20047;-58
2023/03/16 00:44:42;;;;;;;6.55;3.05;;;3.70;99.90;;;;;;4951971;28;20047;-58
2023/03/16 00:47:13;;;;;;;4.90;2.60;;;3.80;99.90;;;;;;4952485;28;21523;-59
2023/03/16 00:49:41;;;;;;;9.15;2.63;;;3.70;99.90;;;;;;4952132;28;20224;-58
2023/03/16 00:52:13;;;;;;;6.78;2.88;;;3.70;99.90;;;;;;4954441;28;20508;-59
2023/03/16 00:54:43;;;;;;;7.68;3.15;;;3.70;99.90;;;;;;4951065;28;20046;-58
2023/03/16 00:57:12;;;;;;;8.50;3.00;;;3.80;99.90;;;;;;4952434;28;20046;-58
2023/03/16 00:59:38;;;;;;;8.90;3.40;;;3.80;99.90;;;;;;4949188;28;20050;-58
2023/03/16 01:02:06;;;;;;;5.72;3.00;;;3.80;99.90;;;;;;4949256;28;20053;-58
2023/03/16 01:04:34;;;;;;;5.63;3.05;;;3.70;99.90;;;;;;4937205;28;20054;-58
2023/03/16 01:07:04;;;;;;;11.02;3.17;;;3.80;99.90;;;;;;4953974;28;20043;-57
2023/03/16 01:09:35;;;;;;;6.50;2.90;;;3.80;99.90;;;;;;4954001;28;20042;-57
2023/03/16 01:12:06;;;;;;;7.68;2.70;;;3.80;99.90;;;;;;4937789;28;20174;-59
2023/03/16 01:14:33;;;;;;;8.35;3.00;;;3.80;99.90;;;;;;4959801;28;20042;-56
2023/03/16 01:17:01;;;;;;;5.00;2.97;;;3.80;99.90;;;;;;4956588;28;20042;-59
2023/03/16 01:19:27;;;;;;;8.45;3.30;;;3.80;99.90;;;;;;4961489;28;20099;-59
2023/03/16 01:21:53;;;;;;;6.30;3.05;;;3.80;99.90;;;;;;4973614;28;20050;-59
2023/03/16 01:24:18;;;;;;;10.07;3.20;;;3.80;99.90;;;;;;4982048;28;20061;-57
2023/03/16 01:26:44;;;;;;;6.07;3.28;;;3.80;99.90;;;;;;4986159;28;20053;-58
2023/03/16 01:29:11;;;;;;;6.55;3.20;;;3.80;99.90;;;;;;4968070;28;20076;-58
2023/03/16 01:31:38;;;;;;;6.63;3.08;;;3.70;99.90;;;;;;4987115;28;20034;-59
2023/03/16 01:34:03;;;;;;;7.22;3.63;;;3.80;99.90;;;;;;4984771;28;20042;-58
2023/03/16 01:36:30;;;;;;;6.70;3.33;;;3.80;99.90;;;;;;4984681;28;20046;-57
2023/03/16 01:38:58;;;;;;;5.38;3.00;;;3.80;99.90;;;;;;4985913;28;20536;-58
2023/03/16 01:41:25;;;;;;;8.35;3.03;;;3.80;99.90;;;;;;4981592;28;20050;-58
2023/03/16 01:43:52;;;;;;;7.93;3.78;;;3.80;99.90;;;;;;4966344;28;20046;-58
2023/03/16 01:46:22;;;;;;;6.57;3.17;;;3.80;99.90;;;;;;4979843;28;20074;-59
2023/03/16 01:48:56;;;;;;;6.43;3.53;;;3.80;99.90;;;;;;4981927;28;20507;-58
2023/03/16 01:51:49;;;;;;;7.57;3.50;;;3.80;99.90;;;;;;4980764;28;20042;-57
2023/03/16 01:54:26;;;;;;;6.13;3.30;;;3.80;99.90;;;;;;4972363;28;21065;-56
2023/03/16 01:56:54;;;;;;;6.13;3.17;;;3.80;99.90;;;;;;4967267;28;20058;-57
2023/03/16 01:59:23;;;;;;;9.45;3.83;;;3.70;99.90;;;;;;4973568;28;20516;-58
2023/03/16 02:01:50;;;;;;;8.20;3.50;;;3.70;99.90;;;;;;4948974;28;20050;-58
2023/03/16 02:04:26;;;;;;;11.38;4.35;;;3.70;99.90;;;;;;4972967;28;20050;-58
2023/03/16 02:06:55;;;;;;;8.75;3.50;;;3.70;99.90;;;;;;4970785;28;20102;-59
2023/03/16 02:09:22;;;;;;;6.20;3.65;;;3.70;99.90;;;;;;4972454;28;20047;-57
2023/03/16 02:11:48;;;;;;;6.57;3.72;;;3.70;99.90;;;;;;4950749;28;20120;-58
2023/03/16 02:14:14;;;;;;;14.35;3.90;;;3.80;99.90;;;;;;4952752;28;20485;-58
2023/03/16 02:16:41;;;;;;;9.48;3.92;;;3.80;99.90;;;;;;4963102;28;20045;-58
2023/03/16 02:19:14;;;;;;;10.63;4.22;;;3.80;99.90;;;;;;4971269;28;20057;-59
2023/03/16 02:21:48;;;;;;;;;;;3.80;99.90;;;;;;4972467;28;20475;-57
2023/03/16 02:24:14;;;;;;;9.18;3.90;;;3.80;99.90;;;;;;4971920;28;20016;-57
2023/03/16 02:26:46;;;;;;;9.57;4.20;;;3.80;99.90;;;;;;4970423;28;20509;-58
2023/03/16 02:29:53;;;;;;;11.15;4.40;;;3.80;99.90;;;;;;4974363;28;20709;-58
2023/03/16 02:32:22;;;;;;;9.68;4.25;;;3.80;99.90;;;;;;4945359;28;21634;-57
2023/03/16 02:34:48;;;;;;;8.02;3.78;;;3.80;99.90;;;;;;4972572;28;20398;-57
2023/03/16 02:37:14;;;;;;;9.18;4.30;;;3.80;99.90;;;;;;4974295;28;20668;-58
2023/03/16 02:39:42;;;;;;;9.52;4.20;;;3.80;99.90;;;;;;4970000;28;20046;-59
2023/03/16 02:42:14;;;;;;;8.05;4.05;;;3.90;99.90;;;;;;4947311;28;20050;-59
2023/03/16 02:44:42;;;;;;;6.93;4.45;;;3.90;99.90;;;;;;4983157;28;20038;-59
2023/03/16 02:47:31;;;;;;;6.82;4.05;;;3.90;99.90;;;;;;4967610;28;20512;-58
2023/03/16 02:49:56;;;;;;;11.70;4.43;;;3.90;99.90;;;;;;4976281;28;20992;-57
2023/03/16 02:52:22;;;;;;;9.43;4.63;;;4.00;99.90;;;;;;4972068;28;20049;-57
2023/03/16 02:54:48;;;;;;;9.73;4.68;;;4.00;99.90;;;;;;4973870;28;20050;-58
2023/03/16 02:57:14;;;;;;;8.23;4.43;;;3.90;99.90;;;;;;4962750;28;20501;-59
2023/03/16 02:59:40;;;;;;;9.68;4.35;;;4.00;99.90;;;;;;4979813;28;20149;-58
2023/03/16 03:02:06;;;;;;;7.40;4.32;;;4.00;99.90;;;;;;4973690;28;21643;-58
2023/03/16 03:04:32;;;;;;;11.05;4.35;;;4.00;99.90;;;;;;4974695;28;20042;-57
2023/03/16 03:07:03;;;;;;;8.68;4.68;;;4.00;99.90;;;;;;4974523;28;20121;-59
2023/03/16 03:09:31;;;;;;;9.50;4.63;;;4.00;99.90;;;;;;4970688;28;20941;-59
2023/03/16 03:11:58;;;;;;;10.85;4.57;;;4.00;99.90;;;;;;4973611;28;20065;-57
2023/03/16 03:14:24;;;;;;;8.15;4.43;;;4.00;99.90;;;;;;4973370;28;20046;-58
2023/03/16 03:16:51;;;;;;;7.50;4.70;;;4.00;99.90;;;;;;4976627;28;20054;-57
2023/03/16 03:19:17;;;;;;;9.00;4.68;;;4.00;99.90;;;;;;4982517;28;20066;-57
2023/03/16 03:21:43;;;;;;;9.77;4.90;;;4.00;99.90;;;;;;4975644;28;20050;-58
2023/03/16 03:24:09;;;;;;;8.82;4.80;;;4.10;99.90;;;;;;4981787;28;20132;-58
2023/03/16 03:26:36;;;;;;;7.28;4.70;;;4.00;99.90;;;;;;4987499;28;20078;-58
2023/03/16 03:29:03;;;;;;;9.70;5.20;;;4.00;99.90;;;;;;4986915;28;20042;-58
2023/03/16 03:31:29;;;;;;;9.93;5.18;;;4.00;99.90;;;;;;4988014;28;20408;-58
2023/03/16 03:33:55;;;;;;;11.27;4.75;;;4.10;99.90;;;;;;4969467;28;20109;-58
2023/03/16 03:36:21;;;;;;;10.35;4.53;;;4.00;99.90;;;;;;4986520;28;20047;-58
2023/03/16 03:38:48;;;;;;;9.07;4.15;;;4.10;99.90;;;;;;4986380;28;20100;-58
2023/03/16 03:41:14;;;;;;;7.70;4.68;;;4.00;99.90;;;;;;4980052;28;20493;-57
2023/03/16 03:43:40;;;;;;;8.45;4.68;;;4.10;99.90;;;;;;4984204;28;20061;-59
2023/03/16 03:46:06;;;;;;;10.48;5.07;;;4.10;99.90;;;;;;4958819;28;20062;-58
2023/03/16 03:48:32;;;;;;;8.45;4.70;;;4.10;99.90;;;;;;4983983;28;20049;-58
2023/03/16 03:50:58;;;;;;;5.93;4.13;;;4.10;99.90;;;;;;4983807;28;20117;-58
2023/03/16 03:53:24;;;;;;;8.93;4.75;;;4.10;99.90;;;;;;4980690;28;20049;-57
2023/03/16 03:55:50;;;;;;;13.15;4.68;;;4.10;99.90;;;;;;4933873;28;20065;-58
2023/03/16 03:58:16;;;;;;;8.40;4.70;;;4.10;99.90;;;;;;4951437;28;20092;-57
2023/03/16 04:00:42;;;;;;;8.80;4.85;;;4.10;99.90;;;;;;4969534;28;20118;-57
2023/03/16 04:03:07;;;;;;;9.40;4.70;;;4.20;99.90;;;;;;4956699;28;20046;-58
2023/03/16 04:05:33;;;;;;;6.90;4.45;;;4.20;99.90;;;;;;4938264;28;20050;-57
2023/03/16 04:07:59;;;;;;;8.75;4.38;;;4.20;99.90;;;;;;4970704;28;20081;-58
2023/03/16 04:10:29;;;;;;;8.23;4.40;;;4.20;99.90;;;;;;4971750;28;20055;-57
2023/03/16 04:12:55;;;;;;;9.23;4.30;;;4.20;99.90;;;;;;4967798;28;20121;-57
2023/03/16 04:15:21;;;;;;;8.27;4.78;;;4.20;99.90;;;;;;4969435;28;20052;-54
2023/03/16 04:17:48;;;;;;;6.35;4.15;;;4.20;99.90;;;;;;4973427;28;20042;-59
2023/03/16 04:20:17;;;;;;;6.70;4.25;;;4.20;99.90;;;;;;4969639;28;20062;-58
2023/03/16 04:22:47;;;;;;;10.85;4.85;;;4.20;99.90;;;;;;4970138;28;20066;-58
2023/03/16 04:25:15;;;;;;;11.88;4.05;;;4.20;99.90;;;;;;4968375;28;20149;-57
2023/03/16 04:27:42;;;;;;;5.30;3.80;;;4.20;99.90;;;;;;4968963;28;20054;-57
2023/03/16 04:30:12;;;;;;;7.22;4.28;;;4.30;99.90;;;;;;4972601;28;20477;-58
2023/03/16 04:32:38;;;;;;;6.47;3.95;;;4.20;99.90;;;;;;4968709;28;20049;-57
2023/03/16 04:35:05;;;;;;;7.70;4.10;;;4.20;99.90;;;;;;4970155;28;20050;-57
2023/03/16 04:37:30;;;;;;;6.10;3.80;;;4.20;99.90;;;;;;4970701;28;20085;-59
2023/03/16 04:39:56;;;;;;;9.63;4.47;;;4.20;99.90;;;;;;4967622;28;20501;-58
2023/03/16 04:42:22;;;;;;;6.93;4.00;;;4.20;99.90;;;;;;4945446;28;20042;-56
2023/03/16 04:44:48;;;;;;;7.57;4.30;;;4.20;99.90;;;;;;4955258;28;20386;-59
2023/03/16 04:47:15;;;;;;;7.10;4.15;;;4.20;99.90;;;;;;4968764;28;20050;-57
2023/03/16 04:49:41;;;;;;;8.10;3.90;;;4.20;99.90;;;;;;4971342;28;20046;-58
2023/03/16 04:52:08;;;;;;;8.25;4.60;;;4.20;99.90;;;;;;4969032;28;20522;-58
2023/03/16 04:54:34;;;;;;;6.20;3.85;;;4.20;99.90;;;;;;4969823;28;20050;-56
2023/03/16 04:57:03;;;;;;;9.73;4.20;;;4.20;99.90;;;;;;4969235;28;20116;-57
2023/03/16 04:59:29;;;;;;;6.32;4.30;;;4.30;99.90;;;;;;4967483;28;20116;-56
2023/03/16 05:01:55;;;;;;;6.20;4.05;;;4.30;99.90;;;;;;4968203;28;20473;-57
2023/03/16 05:04:23;;;;;;;7.82;4.45;;;4.30;99.90;;;;;;4969888;28;20050;-57
2023/03/16 05:06:50;;;;;;;7.70;4.00;;;4.30;99.90;;;;;;4974937;28;20803;-58
2023/03/16 05:09:16;;;;;;;7.22;3.90;;;4.30;99.90;;;;;;4969291;28;20046;-56
2023/03/16 05:11:42;;;;;;;7.22;4.40;;;4.20;99.90;;;;;;4971327;28;20047;-58
2023/03/16 05:14:07;;;;;;;8.75;4.40;;;4.30;99.90;;;;;;4972837;28;20083;-58
2023/03/16 05:16:33;;;;;;;5.80;3.70;;;4.20;99.90;;;;;;4965715;28;20042;-58
2023/03/16 05:19:00;;;;;;;6.85;4.30;;;4.20;99.90;;;;;;4950270;28;20061;-59
2023/03/16 05:21:26;;;;;;;9.95;4.70;;;4.30;99.90;;;;;;4970953;28;20856;-59
2023/03/16 05:23:52;;;;;;;8.30;4.22;;;4.30;99.90;;;;;;4977261;28;20046;-59
2023/03/16 05:26:18;;;;;;;7.00;4.00;;;4.30;99.90;;;;;;4963844;28;20057;-57
2023/03/16 05:28:44;;;;;;;8.82;4.40;;;4.30;99.90;;;;;;4984043;28;20057;-59
2023/03/16 05:31:10;;;;;;;8.38;4.55;;;4.20;99.90;;;;;;4982823;28;20092;-58
2023/03/16 05:33:37;;;;;;;6.47;4.35;;;4.20;99.90;;;;;;4975857;28;20097;-58
2023/03/16 05:36:03;;;;;;;10.73;4.43;;;4.20;99.90;;;;;;4963372;28;20058;-57
2023/03/16 05:38:30;;;;;;;7.65;4.32;;;4.20;99.90;;;;;;4979952;28;20150;-57
2023/03/16 05:41:00;;;;;;;7.95;4.45;;;4.20;99.90;;;;;;4980004;28;20054;-59
2023/03/16 05:43:28;;;;;;;9.23;4.32;;;4.20;99.90;;;;;;4979852;28;20504;-58
2023/03/16 05:45:54;;;;;;;7.60;4.13;;;4.20;99.90;;;;;;4980870;28;20041;-59
2023/03/16 05:48:20;;;;;;;12.35;4.55;;;4.20;99.90;;;;;;4984279;28;20038;-59
2023/03/16 05:50:46;;;;;;;8.48;4.57;;;4.20;99.90;;;;;;4980472;28;20057;-59
2023/03/16 05:53:14;;;;;;;10.25;4.70;;;4.20;99.90;;;;;;4973876;28;20042;-59
2023/03/16 05:55:40;;;;;;;7.45;4.50;;;4.20;99.90;;;;;;4969689;28;20084;-58
2023/03/16 05:58:06;;;;;;;8.65;4.45;;;4.20;99.90;;;;;;4961709;28;20038;-59
2023/03/16 06:00:32;;;;;;;16.23;5.10;;;4.20;99.90;;;;;;4970204;28;20065;-56
2023/03/16 06:02:58;;;;;;;8.98;4.68;;;4.20;99.90;;;;;;4950994;28;20516;-57
2023/03/16 06:05:24;;;;;;;7.00;4.57;;;4.30;99.90;;;;;;4968632;28;20057;-59
2023/03/16 06:07:50;;;;;;;9.82;5.10;;;4.20;99.90;;;;;;4968990;28;20109;-58
2023/03/16 06:10:17;;;;;;;10.05;5.32;;;4.30;99.90;;;;;;4940715;28;20051;-59
2023/03/16 06:12:43;;;;;;;7.93;5.13;;;4.30;99.90;;;;;;4966966;28;20042;-56
2023/03/16 06:15:10;;;;;;;7.47;4.80;;;4.20;99.90;;;;;;4966687;28;20047;-57
2023/03/16 06:17:37;;;;;;;9.43;5.10;;;4.30;99.90;;;;;;4971141;28;20046;-58
2023/03/16 06:20:09;;;;;;;8.10;5.20;;;4.30;99.90;;;;;;4929624;28;1117556;-57
2023/03/16 06:22:40;;;;;;;9.48;5.22;;;4.30;99.90;;;;;;4964577;28;20489;-59
2023/03/16 06:25:08;;;;;;;8.27;5.07;;;4.30;99.90;;;;;;4964325;28;20050;-58
2023/03/16 06:27:35;;;;;;;8.60;5.00;;;4.30;99.90;;;;;;4967897;28;20144;-58
2023/03/16 06:30:00;;;;;;;11.75;4.95;;;4.30;99.90;;;;;;4953820;28;20042;-58
2023/03/16 06:32:26;;;;;;;9.75;5.07;;;4.20;99.90;;;;;;4948074;28;20511;-57
2023/03/16 06:34:52;;;;;;;11.40;5.38;;;4.30;99.90;;;;;;4969057;28;20121;-57
2023/03/16 06:37:18;;;;;;;7.10;4.50;;;4.30;99.90;;;;;;4966263;28;20630;-57
2023/03/16 06:39:44;;;;;;;9.27;5.15;;;4.30;99.90;;;;;;4944472;28;20065;-57
2023/03/16 06:42:10;;;;;;;7.35;4.68;;;4.30;99.90;;;;;;4951875;28;20062;-58
2023/03/16 06:44:36;;;;;;;9.25;5.00;;;4.30;99.90;;;;;;4936666;28;20165;-58
2023/03/16 06:47:03;;;;;;;9.38;5.40;;;4.40;99.90;;;;;;4976764;28;20069;-58
2023/03/16 06:49:29;;;;;;;8.35;4.90;;;4.40;99.90;;;;;;4983069;28;20057;-57
2023/03/16 06:51:57;;;;;;;8.13;4.70;;;4.40;99.90;;;;;;4977957;28;20042;-57
2023/03/16 06:54:23;;;;;;;9.07;4.95;;;4.40;99.90;;;;;;4970983;28;20038;-58
2023/03/16 06:56:49;;;;;;;9.13;4.93;;;4.40;99.90;;;;;;4982475;28;20046;-58
2023/03/16 06:59:15;;;;;;;8.57;5.35;;;4.40;99.90;;;;;;4983587;28;20449;-57
2023/03/16 07:01:43;;;;;;;9.27;5.10;;;4.50;99.90;;;;;;4983802;28;20042;-58
2023/03/16 07:04:09;;;;;;;7.47;4.80;;;4.40;99.90;;;;;;4984215;28;20133;-58
2023/03/16 07:06:34;;;;;;;8.55;5.40;;;4.50;99.90;;;;;;4982649;28;20065;-58
2023/03/16 07:09:00;;;;;;;8.80;4.88;;;4.50;99.90;;;;;;4984598;28;20050;-58
2023/03/16 07:11:26;;;;;;;8.68;5.03;;;4.50;99.90;;;;;;4978569;28;20046;-58
2023/03/16 07:13:52;;;;;;;7.70;4.60;;;4.50;99.90;;;;;;4982697;28;20057;-58
2023/03/16 07:16:18;;;;;;;8.13;4.50;;;4.60;99.90;;;;;;4981943;28;20082;-59
2023/03/16 07:18:44;;;;;;;9.05;4.90;;;4.60;99.90;;;;;;4979020;28;20046;-58
2023/03/16 07:21:10;;;;;;;6.18;4.53;;;4.60;99.90;;;;;;4975834;28;20054;-58
2023/03/16 07:23:35;;;;;;;7.55;4.63;;;4.60;99.90;;;;;;4987249;28;20053;-58
2023/03/16 07:26:02;;;;;;;7.35;4.55;;;4.60;99.90;;;;;;4987528;28;20046;-59
2023/03/16 07:28:28;;;;;;;7.70;4.57;;;4.70;99.90;;;;;;4986192;28;20203;-57
2023/03/16 07:30:54;;;;;;;8.40;4.80;;;4.70;99.90;;;;;;4972113;28;20050;-57
2023/03/16 07:33:21;;;;;;;7.68;4.60;;;4.70;99.90;;;;;;4989689;28;20488;-58
2023/03/16 07:35:47;;;;;;;11.52;4.82;;;4.70;99.90;;;;;;4988683;28;20107;-58
2023/03/16 07:38:12;;;;;;;9.27;4.47;;;4.70;99.90;;;;;;4988692;28;20050;-58
2023/03/16 07:40:39;;;;;;;7.80;4.55;;;4.80;99.90;;;;;;4987456;28;20050;-58
2023/03/16 07:43:05;;;;;;;11.63;5.00;;;4.80;99.90;;;;;;4988589;28;20046;-59
2023/03/16 07:45:31;;;;;;;8.93;4.72;;;4.80;99.90;;;;;;4990893;28;20130;-58
2023/03/16 07:47:56;;;;;;;9.38;4.70;;;4.90;99.90;;;;;;4985611;28;20057;-58
2023/03/16 07:50:22;;;;;;;9.88;5.00;;;4.90;99.90;;;;;;4986313;28;20133;-57
2023/03/16 07:52:48;;;;;;;7.57;4.13;;;4.90;99.90;;;;;;4967973;28;20042;-58
2023/03/16 07:55:15;;;;;;;6.70;4.47;;;4.90;99.90;;;;;;4969127;28;20054;-59
2023/03/16 07:57:41;;;;;;;9.88;4.65;;;5.00;99.90;;;;;;4976069;28;20050;-58
2023/03/16 08:00:08;;;;;;;8.10;4.70;;;5.00;99.90;;;;;;4976033;28;20050;-58
2023/03/16 08:02:34;;;;;;;8.02;4.70;;;5.10;99.90;;;;;;4974794;28;20080;-58
2023/03/16 08:05:00;;;;;;;8.25;4.85;;;5.10;99.90;;;;;;4975517;28;20073;-59
2023/03/16 08:07:26;;;;;;;8.70;4.85;;;5.10;99.90;;;;;;4975439;28;20046;-58
2023/03/16 08:09:52;;;;;;;6.30;4.25;;;5.20;99.90;;;;;;4949670;28;20519;-58
2023/03/16 08:12:18;;;;;;;8.13;4.43;;;5.20;99.90;;;;;;4976897;28;20545;-58
2023/03/16 08:14:45;;;;;;;12.60;5.22;;;5.20;99.90;;;;;;4974852;28;20140;-58
2023/03/16 08:17:11;;;;;;;7.85;4.10;;;5.30;99.90;;;;;;4975505;28;20610;-59
2023/03/16 08:19:37;;;;;;;9.23;4.60;;;5.30;99.90;;;;;;4976190;28;20125;-58
2023/03/16 08:22:04;;;;;;;5.53;4.07;;;5.30;99.90;;;;;;4977141;28;20149;-59
2023/03/16 08:24:31;;;;;;;7.20;4.50;;;5.30;99.90;;;;;;4977477;28;20043;-59
2023/03/16 08:26:58;;;;;;;9.60;5.15;;;5.40;99.90;;;;;;4977992;28;20070;-58
2023/03/16 08:29:24;;;;;;;9.60;4.60;;;5.30;99.90;;;;;;4977010;28;20050;-58
2023/03/16 08:31:55;;;;;;;6.47;4.20;;;5.30;99.90;;;;;;4974926;28;20053;-58
2023/03/16 08:34:22;;;;;;;9.50;4.80;;;5.30;99.90;;;;;;4970826;28;20046;-59
2023/03/16 08:36:48;;;;;;;8.38;4.82;;;5.30;99.90;;;;;;4958264;28;20509;-59
2023/03/16 08:39:14;;;;;;;6.28;4.57;;;5.30;99.90;;;;;;4977589;28;20060;-58
2023/03/16 08:41:41;;;;;;;8.63;4.43;;;5.30;99.90;;;;;;4974038;28;20617;-58
2023/03/16 08:44:08;;;;;;;7.38;4.97;;;5.30;99.90;;;;;;4974921;28;20042;-59
2023/03/16 08:46:34;;;;;;;5.95;4.18;;;5.30;99.90;;;;;;4975982;28;20059;-58
2023/03/16 08:49:01;;;;;;;9.45;5.00;;;5.30;99.90;;;;;;4949148;28;20047;-58
2023/03/16 08:51:28;;;;;;;8.13;4.85;;;5.30;99.90;;;;;;4977777;28;20038;-59
2023/03/16 08:53:54;;;;;;;7.53;4.20;;;5.30;99.90;;;;;;4973418;28;20058;-57
2023/03/16 08:56:20;;;;;;;8.40;4.45;;;5.30;99.90;;;;;;4948392;28;20081;-59
2023/03/16 08:58:46;;;;;;;9.30;5.30;;;5.30;99.90;;;;;;4975505;28;20125;-58
2023/03/16 09:01:16;;;;;;;7.85;4.65;;;5.30;99.90;;;;;;4939730;28;20757;-58
2023/03/16 09:03:44;;;;;;;7.22;4.57;;;5.40;99.90;;;;;;4977622;28;20057;-58
2023/03/16 09:06:13;;;;;;;9.88;5.22;;;5.40;99.90;;;;;;4975365;28;20042;-59
2023/03/16 09:08:40;;;;;;;7.75;4.63;;;5.30;99.90;;;;;;4975008;28;20389;-59
2023/03/16 09:11:08;;;;;;;9.07;4.80;;;5.40;99.90;;;;;;4975338;28;20042;-58
2023/03/16 09:13:35;;;;;;;10.98;5.63;;;5.40;99.90;;;;;;4974047;28;20501;-59
2023/03/16 09:16:01;;;;;;;8.32;4.57;;;5.40;99.90;;;;;;4975804;28;20038;-58
2023/03/16 09:18:27;;;;;;;9.88;4.85;;;5.40;99.90;;;;;;4974965;28;20401;-59
2023/03/16 09:21:01;;;;;;;6.47;4.75;;;5.40;99.90;;;;;;4975849;28;20073;-58
2023/03/16 09:23:28;;;;;;;7.57;4.72;;;5.30;99.90;;;;;;4979182;28;20136;-59
2023/03/16 09:25:58;;;;;;;8.30;4.93;;;5.40;99.90;;;;;;4984861;28;20045;-57
2023/03/16 09:28:30;;;;;;;8.32;4.70;;;5.40;99.90;;;;;;4986404;28;20057;-58
2023/03/16 09:30:57;;;;;;;12.70;5.18;;;5.40;99.90;;;;;;4988336;28;20181;-58
2023/03/16 09:33:24;;;;;;;9.38;5.43;;;5.40;99.90;;;;;;4982137;28;20052;-57
2023/03/16 09:35:51;;;;;;;10.52;5.28;;;5.40;99.90;;;;;;4987236;28;20046;-58
2023/03/16 09:38:17;;;;;;;8.70;5.38;;;5.40;99.90;;;;;;4986294;28;20038;-58
2023/03/16 09:40:46;;;;;;;8.30;5.10;;;5.50;99.90;;;;;;4986302;28;20042;-58
2023/03/16 09:43:13;;;;;;;8.85;5.32;;;5.50;99.90;;;;;;4984839;28;20046;-57
2023/03/16 09:45:52;;;;;;;7.50;5.25;;;5.60;99.90;;;;;;4987388;28;20140;-58
2023/03/16 09:48:20;;;;;;;8.18;4.90;;;5.60;99.90;;;;;;4985310;28;20046;-58
2023/03/16 09:50:47;;;;;;;9.25;5.45;;;5.70;99.90;;;;;;4986175;28;20046;-58
2023/03/16 09:53:32;;;;;;;9.68;5.55;;;5.80;99.90;;;;;;4980950;28;20497;-58
2023/03/16 09:56:02;;;;;;;8.00;5.38;;;5.90;99.90;;;;;;4974866;28;20046;-58
2023/03/16 09:58:31;;;;;;;7.80;5.22;;;5.90;99.90;;;;;;4975502;28;20046;-58
2023/03/16 10:01:15;;;;;;;10.98;5.13;;;6.00;99.90;;;;;;4977138;28;20488;-58
2023/03/16 10:04:02;;;;;;;9.90;5.45;;;6.00;99.90;;;;;;4976191;28;20050;-59
2023/03/16 10:06:28;;;;;;;8.68;5.20;;;6.00;99.90;;;;;;4972583;28;20088;-58
2023/03/16 10:09:12;;;;;;;9.35;5.25;;;6.00;99.90;;;;;;4974143;28;21133;-58
2023/03/16 10:11:46;;;;;;;7.80;4.95;;;6.00;99.90;;;;;;4974590;28;20042;-58
2023/03/16 10:14:24;;;;;;;8.48;5.22;;;6.00;99.90;;;;;;4971431;28;20054;-57
2023/03/16 10:17:13;;;;;;;10.43;5.25;;;6.00;99.90;;;;;;4964826;28;20047;-58
2023/03/16 10:19:53;;;;;;;8.93;5.38;;;6.10;99.90;;;;;;4970140;28;20169;-58
2023/03/16 10:22:28;;;;;;;7.78;5.30;;;6.10;99.90;;;;;;4955223;28;20065;-58
2023/03/16 10:25:14;;;;;;;8.45;5.32;;;6.10;99.90;;;;;;4961546;28;20624;-58
2023/03/16 10:27:43;;;;;;;11.00;5.20;;;6.20;99.90;;;;;;4962427;28;20046;-59
2023/03/16 10:30:33;;;;;;;8.80;4.88;;;6.20;99.90;;;;;;4960526;28;20051;-59
2023/03/16 10:33:17;;;;;;;9.98;5.05;;;6.20;99.90;;;;;;4960364;28;20561;-58
2023/03/16 10:35:54;;;;;;;8.68;4.93;;;6.20;99.90;;;;;;4958259;28;20046;-58
2023/03/16 10:38:45;;;;;;;10.48;5.63;;;6.20;99.90;;;;;;4957878;28;20054;-59
2023/03/16 10:41:17;;;;;;;9.38;5.40;;;6.10;99.90;;;;;;4958830;28;20101;-59
2023/03/16 10:43:50;;;;;;;8.40;4.90;;;6.10;99.90;;;;;;4961291;28;20086;-59
2023/03/16 10:46:16;;;;;;;10.52;5.45;;;6.10;99.90;;;;;;4943845;28;20073;-59
2023/03/16 10:48:58;;;;;;;9.45;5.10;;;6.10;99.90;;;;;;4962360;28;20107;-59
2023/03/16 10:51:26;;;;;;;9.55;4.95;;;6.10;99.90;;;;;;4958688;28;20592;-59
2023/03/16 10:53:53;;;;;;;7.82;4.47;;;6.10;99.90;;;;;;4960972;28;20120;-58
2023/03/16 10:56:26;;;;;;;9.95;5.03;;;6.20;99.90;;;;;;4962850;28;20031;-58
2023/03/16 10:58:52;;;;;;;9.40;5.10;;;6.20;99.90;;;;;;4961865;28;20042;-59
2023/03/16 11:01:23;;;;;;;11.10;5.00;;;6.20;99.90;;;;;;4941511;28;20074;-59
2023/03/16 11:03:54;;;;;;;7.30;4.70;;;6.20;99.90;;;;;;4962022;28;20512;-59
2023/03/16 11:06:29;;;;;;;9.60;4.95;;;6.20;99.90;;;;;;4959751;28;20050;-58
2023/03/16 11:09:11;;;;;;;10.07;5.05;;;6.20;99.90;;;;;;4959552;28;20047;-58
2023/03/16 11:11:37;;;;;;;8.52;4.95;;;6.20;99.90;;;;;;4957787;28;20093;-58
2023/03/16 11:14:11;;;;;;;9.40;4.68;;;6.20;99.90;;;;;;4958785;28;20560;-56
2023/03/16 11:16:46;;;;;;;7.78;4.93;;;6.20;99.90;;;;;;4941706;28;20053;-57
2023/03/16 11:19:21;;;;;;;11.43;5.50;;;6.30;99.90;;;;;;4926053;28;20055;-57
2023/03/16 11:22:12;;;;;;;10.55;5.38;;;6.30;99.90;;;;;;4958174;28;20387;-58
2023/03/16 11:25:13;;;;;;;6.53;4.90;;;6.30;99.90;;;;;;4938089;28;20058;-58
2023/03/16 11:27:50;;;;;;;8.55;5.03;;;6.40;99.90;;;;;;4937100;28;20078;-58
2023/03/16 11:30:42;;;;;;;9.30;4.95;;;6.50;99.90;;;;;;4968356;28;20150;-58
2023/03/16 11:33:14;;;;;;;8.80;4.67;;;6.60;99.90;;;;;;4963984;28;20081;-58
2023/03/16 11:36:07;;;;;;;7.13;4.40;;;6.70;99.90;;;;;;4952797;28;20499;-59
2023/03/16 11:38:52;;;;;;;6.90;4.45;;;6.70;99.90;;;;;;4969555;28;20050;-58
2023/03/16 11:41:43;;;;;;;10.93;4.68;;;6.80;99.90;;;;;;4968220;28;20485;-58
2023/03/16 11:44:42;;;;;;;6.25;4.55;;;6.80;99.90;;;;;;4964518;28;20139;-58
2023/03/16 11:47:32;;;;;;;9.35;4.60;;;6.90;99.90;;;;;;4968402;28;20042;-58
2023/03/16 11:50:18;;;;;;;8.80;4.38;;;6.90;99.90;;;;;;4968693;28;20046;-58
2023/03/16 11:53:03;;;;;;;7.35;4.00;;;7.00;99.90;;;;;;4961319;28;20055;-58
2023/03/16 11:55:56;;;;;;;8.80;4.70;;;6.90;99.90;;;;;;4950512;28;20060;-59
2023/03/16 11:58:30;;;;;;;8.75;4.30;;;7.00;99.90;;;;;;4959108;28;20394;-58
2023/03/16 12:01:14;;;;;;;6.53;4.25;;;7.00;99.90;;;;;;4958304;28;20051;-59
2023/03/16 12:03:57;;;;;;;9.30;4.68;;;7.00;99.90;;;;;;4956913;28;20070;-58
2023/03/16 12:06:49;;;;;;;8.15;5.00;;;7.00;99.90;;;;;;4956980;28;20051;-58
2023/03/16 12:09:24;;;;;;;7.45;4.47;;;7.10;99.90;;;;;;4957384;28;20066;-59
2023/03/16 12:12:01;;;;;;;8.65;4.15;;;7.20;99.90;;;;;;4955878;28;20046;-59
2023/03/16 12:15:13;;;;;;;7.43;4.10;;;7.20;99.90;;;;;;4954634;28;20046;-59
2023/03/16 12:17:40;;;;;;;5.38;4.43;;;7.40;99.90;;;;;;4958783;28;20050;-59
2023/03/16 12:20:18;;;;;;;9.38;4.45;;;7.50;99.90;;;;;;4961854;28;20058;-59
2023/03/16 12:23:01;;;;;;;6.70;4.43;;;7.60;99.90;;;;;;4971115;28;20097;-58
2023/03/16 12:25:38;;;;;;;7.72;4.18;;;7.70;99.90;;;;;;4971790;28;20054;-58
2023/03/16 12:28:12;;;;;;;8.77;4.57;;;7.80;99.90;;;;;;4969255;28;20042;-58
2023/03/16 12:30:57;;;;;;;7.70;4.28;;;7.90;99.90;;;;;;4933443;28;20054;-58
2023/03/16 12:33:39;;;;;;;8.43;4.38;;;8.00;99.90;;;;;;4972397;28;20046;-58
2023/03/16 12:36:36;;;;;;;6.25;3.58;;;8.10;99.90;;;;;;4969135;28;20049;-58
2023/03/16 12:39:13;;;;;;;6.57;3.92;;;8.20;99.90;;;;;;4975251;28;20528;-59
2023/03/16 12:42:12;;;;;;;8.77;4.00;;;8.20;99.90;;;;;;4975064;28;20140;-58
2023/03/16 12:44:53;;;;;;;7.63;4.18;;;8.30;99.90;;;;;;4966496;28;20120;-59
2023/03/16 12:47:27;;;;;;;5.93;3.97;;;8.40;99.90;;;;;;4979351;28;20496;-59
2023/03/16 12:49:53;;;;;;;5.95;3.90;;;8.50;99.90;;;;;;4986042;28;20046;-59
2023/03/16 12:52:19;;;;;;;7.45;4.38;;;8.60;99.90;;;;;;4973427;28;20058;-59
2023/03/16 12:55:18;;;;;;;7.75;4.22;;;8.60;99.90;;;;;;4974402;28;20131;-59
2023/03/16 12:57:47;;;;;;;7.10;3.85;;;8.70;99.90;;;;;;4985436;28;20042;-58
2023/03/16 13:00:14;;;;;;;6.57;4.18;;;8.70;99.90;;;;;;4986789;28;20056;-59
2023/03/16 13:02:49;;;;;;;6.47;3.90;;;8.70;99.90;;;;;;4977643;28;21999;-59
2023/03/16 13:05:26;;;;;;;6.25;4.00;;;8.70;99.90;;;;;;4960773;28;20490;-59
2023/03/16 13:08:10;;;;;;;6.47;3.60;;;8.70;99.90;;;;;;4976006;28;20100;-59
2023/03/16 13:10:37;;;;;;;5.95;4.03;;;8.70;99.90;;;;;;4975308;28;20133;-59
2023/03/16 13:13:12;;;;;;;7.90;4.15;;;8.70;99.90;;;;;;4948137;28;21198;-59